createdAt,value
2018-12-05T00:02:28.143Z,19.43
2018-12-05T00:04:59.819Z,20.87
2018-12-05T00:07:30.589Z,19.87
2018-12-05T00:10:02.705Z,19.57
2018-12-05T00:12:33.543Z,20.67
2018-12-05T00:15:04.581Z,20.70
2018-12-05T00:17:35.244Z,21.57
2018-12-05T00:20:07.094Z,22.90
2018-12-05T00:22:37.954Z,25.60
2018-12-05T00:25:10.118Z,21.80
2018-12-05T00:27:40.945Z,20.37
2018-12-05T00:30:11.648Z,23.30
2018-12-05T00:32:42.442Z,23.90
2018-12-05T00:35:13.869Z,21.93
2018-12-05T00:37:44.711Z,23.53
2018-12-05T00:40:15.661Z,21.20
2018-12-05T00:42:46.875Z,21.10
2018-12-05T00:45:17.880Z,20.47
2018-12-05T00:47:48.685Z,20.53
2018-12-05T00:50:19.469Z,22.23
2018-12-05T00:52:50.454Z,23.60
2018-12-05T00:55:24.938Z,24.13
2018-12-05T00:57:55.672Z,24.07
2018-12-05T01:00:26.545Z,19.47
2018-12-05T01:02:57.314Z,18.83
2018-12-05T01:05:28.054Z,19.70
2018-12-05T01:07:58.789Z,19.07
2018-12-05T01:10:29.888Z,23.43
2018-12-05T01:13:00.702Z,21.97
2018-12-05T01:15:31.465Z,20.70
2018-12-05T01:18:03.594Z,27.97
2018-12-05T01:20:34.601Z,23.60
2018-12-05T01:23:05.280Z,24.03
2018-12-05T01:25:36.026Z,23.27
2018-12-05T01:28:08.085Z,21.87
2018-12-05T01:30:38.851Z,24.10
2018-12-05T01:33:09.791Z,21.00
2018-12-05T01:35:40.535Z,20.00
2018-12-05T01:38:13.588Z,22.20
2018-12-05T01:40:44.428Z,21.93
2018-12-05T01:43:15.217Z,19.33
2018-12-05T01:45:46.127Z,22.73
2018-12-05T01:48:17.168Z,24.10
2018-12-05T01:50:47.955Z,31.23
2018-12-05T01:53:18.676Z,25.03
2018-12-05T01:55:49.413Z,22.70
2018-12-05T01:58:20.505Z,21.27
2018-12-05T02:00:51.221Z,17.27
2018-12-05T02:03:21.900Z,22.23
2018-12-05T02:05:52.647Z,19.53
2018-12-05T02:08:24.817Z,22.20
2018-12-05T02:10:55.635Z,21.93
2018-12-05T02:13:26.417Z,19.67
2018-12-05T02:15:57.159Z,18.97
2018-12-05T02:18:28.095Z,20.90
2018-12-05T02:20:58.869Z,22.30
2018-12-05T02:23:29.499Z,23.10
2018-12-05T02:26:00.161Z,26.10
2018-12-05T02:28:31.174Z,27.30
2018-12-05T02:31:02.518Z,32.13
2018-12-05T02:33:33.253Z,32.97
2018-12-05T02:36:04.148Z,35.90
2018-12-05T02:38:34.886Z,35.13
2018-12-05T02:41:06.022Z,38.23
2018-12-05T02:43:37.044Z,44.90
2018-12-05T02:46:07.903Z,27.83
2018-12-05T02:48:40.316Z,27.77
2018-12-05T02:51:11.086Z,26.63
2018-12-05T02:53:43.170Z,30.00
2018-12-05T02:56:14.147Z,35.20
2018-12-05T02:58:44.949Z,35.50
2018-12-05T03:01:15.995Z,34.70
2018-12-05T03:03:46.700Z,37.07
2018-12-05T03:06:17.405Z,28.97
2018-12-05T03:08:48.955Z,36.47
2018-12-05T03:11:19.849Z,32.30
2018-12-05T03:13:50.621Z,36.03
2018-12-05T03:16:21.707Z,39.97
2018-12-05T03:18:52.477Z,35.67
2018-12-05T03:21:23.141Z,35.47
2018-12-05T03:23:53.858Z,37.83
2018-12-05T03:26:24.847Z,35.80
2018-12-05T03:28:55.597Z,37.43
2018-12-05T03:31:26.238Z,31.03
2018-12-05T03:33:57.023Z,39.30
2018-12-05T03:36:28.093Z,41.53
2018-12-05T03:38:58.836Z,38.20
2018-12-05T03:41:30.825Z,37.77
2018-12-05T03:44:01.507Z,34.33
2018-12-05T03:46:34.702Z,36.43
2018-12-05T03:49:06.579Z,35.70
2018-12-05T03:51:37.360Z,36.90
2018-12-05T03:54:12.121Z,36.87
2018-12-05T03:56:44.541Z,32.70
2018-12-05T03:59:15.254Z,33.77
2018-12-05T04:01:46.162Z,35.13
2018-12-05T04:04:17.002Z,34.93
2018-12-05T04:06:48.006Z,36.27
2018-12-05T04:09:19.177Z,32.13
2018-12-05T04:11:49.941Z,33.30
2018-12-05T04:14:20.870Z,33.27
2018-12-05T04:16:52.328Z,34.67
2018-12-05T04:19:23.184Z,34.43
2018-12-05T04:21:54.050Z,38.10
2018-12-05T04:24:25.322Z,35.67
2018-12-05T04:26:56.166Z,34.90
2018-12-05T04:29:26.926Z,31.90
2018-12-05T04:31:58.582Z,36.27
2018-12-05T04:34:30.718Z,34.63
2018-12-05T04:37:01.511Z,32.43
2018-12-05T04:39:32.253Z,36.90
2018-12-05T04:42:03.025Z,33.90
2018-12-05T04:44:35.201Z,31.70
2018-12-05T04:47:05.944Z,32.13
2018-12-05T04:49:36.581Z,37.03
2018-12-05T04:52:07.280Z,35.50
2018-12-05T04:54:37.994Z,35.67
2018-12-05T04:57:08.870Z,34.90
2018-12-05T04:59:39.544Z,37.00
2018-12-05T05:02:11.824Z,31.70
2018-12-05T05:04:42.519Z,38.93
2018-12-05T05:07:13.188Z,37.83
2018-12-05T05:09:45.609Z,36.37
2018-12-05T05:12:19.423Z,33.40
2018-12-05T05:14:50.377Z,33.50
2018-12-05T05:17:21.182Z,36.90
2018-12-05T05:19:53.330Z,35.83
2018-12-05T05:22:24.150Z,38.33
2018-12-05T05:24:57.993Z,37.53
2018-12-05T05:27:28.806Z,39.37
2018-12-05T05:30:00.885Z,38.07
2018-12-05T05:32:31.786Z,33.83
2018-12-05T05:35:02.522Z,34.03
2018-12-05T05:37:33.535Z,35.83
2018-12-05T05:40:04.275Z,39.07
2018-12-05T05:42:34.995Z,36.20
2018-12-05T05:45:05.800Z,35.67
2018-12-05T05:47:36.576Z,38.13
2018-12-05T05:50:07.583Z,34.60
2018-12-05T05:52:38.931Z,32.50
2018-12-05T05:55:09.693Z,36.63
2018-12-05T05:57:40.481Z,28.53
2018-12-05T06:00:11.677Z,29.57
2018-12-05T06:02:42.488Z,29.87
2018-12-05T06:05:13.200Z,35.60
2018-12-05T06:07:44.008Z,41.27
2018-12-05T06:10:18.252Z,32.77
2018-12-05T06:12:50.778Z,36.77
2018-12-05T06:15:25.367Z,34.93
2018-12-05T06:17:59.956Z,35.87
2018-12-05T06:20:31.981Z,35.93
2018-12-05T06:23:04.468Z,36.53
2018-12-05T06:25:35.697Z,33.57
2018-12-05T06:28:06.413Z,42.77
2018-12-05T06:30:37.493Z,33.60
2018-12-05T06:33:08.245Z,39.37
2018-12-05T06:35:41.160Z,35.90
2018-12-05T06:38:11.886Z,35.20
2018-12-05T06:40:42.641Z,30.00
2018-12-05T06:43:13.356Z,31.47
2018-12-05T06:45:44.170Z,34.00
2018-12-05T06:48:15.228Z,33.60
2018-12-05T06:50:45.998Z,37.03
2018-12-05T06:53:19.235Z,40.43
2018-12-05T06:55:55.089Z,37.70
2018-12-05T06:58:36.653Z,33.20
2018-12-05T07:01:12.823Z,35.57
2018-12-05T07:03:45.697Z,34.53
2018-12-05T07:06:21.710Z,32.63
2018-12-05T07:09:10.282Z,31.17
2018-12-05T07:11:42.433Z,38.17
2018-12-05T07:14:14.525Z,32.03
2018-12-05T07:16:49.026Z,28.43
2018-12-05T07:19:19.728Z,33.70
2018-12-05T07:21:50.533Z,33.87
2018-12-05T07:24:21.529Z,30.10
2018-12-05T07:26:52.249Z,33.47
2018-12-05T07:29:23.036Z,31.77
2018-12-05T07:31:54.188Z,33.60
2018-12-05T07:34:24.913Z,29.47
2018-12-05T07:36:55.734Z,33.17
2018-12-05T07:39:26.754Z,28.67
2018-12-05T07:41:57.801Z,28.83
2018-12-05T07:44:28.409Z,28.93
2018-12-05T07:46:59.560Z,28.03
2018-12-05T07:49:30.526Z,30.60
2018-12-05T07:52:02.077Z,28.40
2018-12-05T07:54:32.885Z,29.83
2018-12-05T07:57:03.729Z,29.47
2018-12-05T07:59:35.861Z,28.53
2018-12-05T08:02:06.834Z,30.53
2018-12-05T08:04:37.764Z,30.37
2018-12-05T08:07:08.627Z,29.07
2018-12-05T08:09:39.485Z,27.87
2018-12-05T08:12:11.839Z,33.00
2018-12-05T08:14:42.557Z,32.63
2018-12-05T08:17:13.501Z,30.57
2018-12-05T08:19:44.560Z,28.73
2018-12-05T08:22:15.399Z,28.90
2018-12-05T08:24:46.182Z,31.03
2018-12-05T08:27:16.966Z,29.43
2018-12-05T08:29:47.691Z,34.20
2018-12-05T08:32:18.759Z,27.00
2018-12-05T08:34:50.467Z,25.17
2018-12-05T08:37:21.211Z,27.43
2018-12-05T08:39:55.601Z,31.30
2018-12-05T08:42:26.436Z,25.03
2018-12-05T08:44:57.239Z,25.77
2018-12-05T08:47:33.651Z,25.67
2018-12-05T08:50:01.021Z,24.73
2018-12-05T08:52:31.725Z,25.57
2018-12-05T08:55:02.701Z,31.60
2018-12-05T08:57:33.429Z,25.27
2018-12-05T09:00:04.164Z,26.10
2018-12-05T09:02:38.653Z,26.53
2018-12-05T09:05:09.419Z,25.43
2018-12-05T09:07:40.153Z,28.93
2018-12-05T09:10:11.379Z,25.10
2018-12-05T09:12:42.395Z,23.77
2018-12-05T09:15:13.129Z,23.60
2018-12-05T09:17:44.089Z,24.57
2018-12-05T09:20:14.850Z,25.87
2018-12-05T09:22:45.637Z,27.70
2018-12-05T09:25:18.292Z,25.50
2018-12-05T09:27:49.071Z,25.07
2018-12-05T09:30:20.044Z,21.73
2018-12-05T09:32:51.056Z,26.50
2018-12-05T09:37:50.504Z,25.17
2018-12-05T09:40:21.245Z,22.17
2018-12-05T09:42:54.051Z,25.60
2018-12-05T09:45:24.741Z,23.27
2018-12-05T09:47:55.446Z,21.90
2018-12-05T09:50:27.081Z,21.97
2018-12-05T09:52:57.733Z,23.70
2018-12-05T09:55:30.744Z,22.57
2018-12-05T09:58:01.567Z,22.13
2018-12-05T10:00:33.841Z,21.20
2018-12-05T10:03:07.899Z,22.93
2018-12-05T10:05:38.566Z,22.37
2018-12-05T10:08:09.380Z,19.97
2018-12-05T10:10:41.474Z,22.07
2018-12-05T10:13:12.144Z,19.90
2018-12-05T10:15:42.878Z,20.97
2018-12-05T10:18:15.753Z,22.83
2018-12-05T10:20:46.431Z,18.63
2018-12-05T10:23:19.422Z,22.97
2018-12-05T10:25:50.229Z,22.93
2018-12-05T10:28:20.991Z,19.33
2018-12-05T10:30:52.281Z,20.00
2018-12-05T10:33:23.000Z,20.70
2018-12-05T10:35:53.707Z,21.53
2018-12-05T10:38:26.289Z,23.40
2018-12-05T10:40:57.253Z,19.47
2018-12-05T10:46:31.811Z,22.13
2018-12-05T10:49:02.858Z,19.97
2018-12-05T10:51:34.438Z,22.67
2018-12-05T10:54:05.421Z,20.03
2018-12-05T10:56:43.310Z,21.20
2018-12-05T10:59:18.632Z,20.10
2018-12-05T11:02:01.571Z,20.07
2018-12-05T11:04:38.331Z,23.10
2018-12-05T11:07:18.023Z,17.73
2018-12-05T11:09:56.057Z,24.03
2018-12-05T11:12:38.870Z,19.47
2018-12-05T11:15:19.731Z,26.47
2018-12-05T11:18:07.659Z,20.87
2018-12-05T11:20:48.858Z,22.20
2018-12-05T11:23:27.942Z,19.33
2018-12-05T11:26:06.094Z,18.03
2018-12-05T11:28:48.093Z,19.00
2018-12-05T11:31:27.512Z,21.53
2018-12-05T11:34:06.146Z,18.53
2018-12-05T11:36:46.693Z,20.43
2018-12-05T11:39:30.896Z,19.13
2018-12-05T11:42:03.311Z,18.77
2018-12-05T11:44:39.689Z,19.40
2018-12-05T11:47:15.264Z,16.90
2018-12-05T11:49:49.860Z,18.40
2018-12-05T11:52:22.733Z,23.90
2018-12-05T11:54:57.495Z,21.17
2018-12-05T11:57:33.325Z,20.53
2018-12-05T12:00:10.109Z,20.80
2018-12-05T12:02:44.130Z,20.40
2018-12-05T12:05:20.675Z,20.70
2018-12-05T12:07:55.561Z,18.90
2018-12-05T12:10:36.815Z,18.70
2018-12-05T12:13:11.253Z,18.57
2018-12-05T12:15:46.296Z,19.60
2018-12-05T12:18:22.259Z,19.07
2018-12-05T12:21:00.273Z,19.40
2018-12-05T12:23:34.227Z,15.83
2018-12-05T12:26:09.350Z,15.13
2018-12-05T12:28:43.967Z,15.77
2018-12-05T12:31:19.910Z,17.70
2018-12-05T12:33:54.763Z,18.23
2018-12-05T12:36:29.691Z,17.77
2018-12-05T12:39:04.141Z,18.63
2018-12-05T12:41:38.910Z,21.20
2018-12-05T12:44:15.170Z,19.63
2018-12-05T12:51:47.731Z,17.80
2018-12-05T12:54:23.034Z,18.83
2018-12-05T12:56:56.042Z,17.53
2018-12-05T12:59:30.708Z,17.40
2018-12-05T13:02:07.174Z,19.60
2018-12-05T13:04:42.317Z,19.63
2018-12-05T13:07:14.220Z,20.03
2018-12-05T13:09:45.752Z,20.77
2018-12-05T13:12:25.267Z,22.40
2018-12-05T13:15:00.116Z,23.93
2018-12-05T13:17:31.133Z,22.20
2018-12-05T13:20:04.675Z,22.57
2018-12-05T13:22:39.232Z,24.13
2018-12-05T13:25:13.734Z,23.37
2018-12-05T13:27:48.218Z,23.10
2018-12-05T13:30:23.398Z,20.53
2018-12-05T13:32:57.831Z,22.50
2018-12-05T13:35:33.426Z,18.63
2018-12-05T13:38:05.176Z,22.43
2018-12-05T13:40:37.640Z,22.97
2018-12-05T13:43:12.855Z,20.80
2018-12-05T13:45:47.809Z,21.53
2018-12-05T13:48:20.673Z,23.37
2018-12-05T13:50:57.396Z,20.80
2018-12-05T14:03:26.108Z,20.10
2018-12-05T14:06:01.408Z,21.97
2018-12-05T14:08:35.441Z,26.00
2018-12-05T14:11:07.792Z,23.17
2018-12-05T14:13:42.367Z,22.80
2018-12-05T14:16:16.691Z,23.97
2018-12-05T14:18:49.354Z,22.83
2018-12-05T14:21:23.807Z,21.70
2018-12-05T14:23:55.343Z,23.97
2018-12-05T14:26:32.554Z,24.70
2018-12-05T14:29:07.066Z,22.23
2018-12-05T14:31:41.428Z,23.43
2018-12-05T14:34:15.909Z,23.60
2018-12-05T14:36:50.618Z,24.47
2018-12-05T14:39:27.474Z,26.13
2018-12-05T14:42:03.004Z,21.00
2018-12-05T14:44:39.472Z,23.07
2018-12-05T14:47:14.744Z,26.50
2018-12-05T14:49:47.647Z,23.40
2018-12-05T14:52:21.919Z,24.53
2018-12-05T14:54:54.635Z,21.10
2018-12-05T14:57:30.720Z,22.93
2018-12-05T15:00:06.008Z,22.03
2018-12-05T15:02:40.594Z,22.80
2018-12-05T15:12:42.273Z,23.60
2018-12-05T15:15:13.599Z,24.47
2018-12-05T15:17:44.709Z,24.77
2018-12-05T15:20:17.201Z,24.13
2018-12-05T15:22:49.201Z,24.93
2018-12-05T15:25:20.189Z,24.30
2018-12-05T15:27:51.604Z,27.27
2018-12-05T15:30:24.315Z,22.90
2018-12-05T15:32:55.410Z,28.43
2018-12-05T15:35:26.562Z,24.27
2018-12-05T15:37:57.677Z,25.43
2018-12-05T15:40:28.726Z,25.93
2018-12-05T15:43:00.291Z,21.70
2018-12-05T15:45:31.287Z,25.17
2018-12-05T15:48:03.393Z,27.63
2018-12-05T15:50:34.457Z,26.07
2018-12-05T15:53:05.849Z,29.37
2018-12-05T15:55:36.878Z,25.90
2018-12-05T15:58:08.265Z,24.57
2018-12-05T16:00:39.310Z,25.70
2018-12-05T16:03:10.494Z,26.87
2018-12-05T16:05:42.217Z,25.40
2018-12-05T16:08:13.242Z,24.00
2018-12-05T16:10:44.257Z,23.63
2018-12-05T16:13:15.229Z,26.23
2018-12-05T16:15:46.282Z,28.03
2018-12-05T16:18:17.209Z,27.73
2018-12-05T16:20:48.594Z,26.87
2018-12-05T16:23:19.623Z,26.63
2018-12-05T16:25:50.785Z,26.03
2018-12-05T16:28:22.129Z,24.27
2018-12-05T16:30:53.174Z,23.33
2018-12-05T16:33:24.270Z,26.37
2018-12-05T16:35:55.317Z,23.23
2018-12-05T16:38:27.647Z,23.13
2018-12-05T16:40:58.736Z,20.53
2018-12-05T16:43:29.790Z,20.53
2018-12-05T16:46:01.193Z,23.47
2018-12-05T16:48:32.280Z,23.27
2018-12-05T16:51:03.417Z,20.70
2018-12-05T16:53:34.487Z,20.70
2018-12-05T16:56:05.697Z,20.30
2018-12-05T16:58:36.843Z,20.40
2018-12-05T17:01:08.035Z,20.90
2018-12-05T17:03:39.441Z,24.33
2018-12-05T17:06:10.774Z,30.60
2018-12-05T17:08:42.112Z,24.33
2018-12-05T17:11:13.270Z,21.30
2018-12-05T17:13:44.474Z,21.23
2018-12-05T17:16:18.089Z,20.37
2018-12-05T17:18:51.042Z,21.93
2018-12-05T17:25:22.448Z,21.37
2018-12-05T17:27:53.817Z,21.60
2018-12-05T17:30:25.387Z,19.10
2018-12-05T17:32:56.840Z,21.40
2018-12-05T17:35:28.722Z,18.80
2018-12-05T17:37:59.828Z,21.73
2018-12-05T17:40:31.420Z,23.87
2018-12-05T17:43:03.934Z,18.90
2018-12-05T17:45:35.285Z,16.70
2018-12-05T17:48:06.638Z,18.80
2018-12-05T17:50:37.765Z,18.67
2018-12-05T17:53:08.925Z,18.77
2018-12-05T17:55:42.065Z,17.50
2018-12-05T17:58:13.046Z,18.57
2018-12-05T18:00:50.773Z,19.83
2018-12-05T18:03:22.843Z,23.03
2018-12-05T18:05:53.877Z,19.97
2018-12-05T18:08:26.248Z,19.63
2018-12-05T18:10:58.909Z,23.70
2018-12-05T18:13:31.593Z,21.17
2018-12-05T18:16:05.699Z,19.93
2018-12-05T18:18:37.603Z,21.93
2018-12-05T18:21:10.265Z,21.03
2018-12-05T18:23:41.546Z,21.77
2018-12-05T18:26:15.259Z,26.40
2018-12-05T18:28:47.305Z,29.23
2018-12-05T18:31:21.806Z,19.63
2018-12-05T18:33:54.449Z,22.17
2018-12-05T18:36:26.651Z,23.57
2018-12-05T18:39:00.432Z,27.53
2018-12-05T18:41:33.022Z,21.13
2018-12-05T18:44:09.489Z,25.20
2018-12-05T18:46:56.611Z,25.57
2018-12-05T18:49:28.965Z,26.00
2018-12-05T18:52:02.878Z,22.17
2018-12-05T18:54:34.979Z,27.83
2018-12-05T18:57:09.579Z,25.43
2018-12-05T18:59:40.112Z,24.37
2018-12-05T19:02:12.502Z,29.63
2018-12-05T19:04:44.327Z,24.43
2018-12-05T19:07:15.373Z,24.40
2018-12-05T19:09:49.871Z,26.87
2018-12-05T19:12:37.058Z,26.50
2018-12-05T19:15:09.958Z,22.10
2018-12-05T19:17:42.869Z,20.50
2018-12-05T19:20:18.671Z,28.07
2018-12-05T19:22:51.053Z,29.73
2018-12-05T19:34:25.669Z,22.97
2018-12-05T19:37:01.016Z,26.07
2018-12-05T19:39:35.814Z,24.63
2018-12-05T19:42:10.932Z,26.33
2018-12-05T19:44:49.552Z,29.20
2018-12-05T19:47:33.083Z,24.53
2018-12-05T19:50:08.460Z,25.10
2018-12-05T19:52:42.778Z,31.70
2018-12-05T19:55:18.769Z,23.73
2018-12-05T19:57:56.335Z,28.23
2018-12-05T20:00:30.162Z,28.17
2018-12-05T20:03:06.420Z,25.07
2018-12-05T20:05:39.474Z,28.07
2018-12-05T20:10:54.656Z,26.03
2018-12-05T20:13:33.201Z,26.63
2018-12-05T20:16:23.904Z,26.80
2018-12-05T20:19:02.692Z,29.60
2018-12-05T20:21:43.951Z,25.37
2018-12-05T20:24:35.535Z,27.20
2018-12-05T20:27:13.246Z,28.83
2018-12-05T20:29:49.609Z,28.87
2018-12-05T20:32:25.222Z,23.97
2018-12-05T20:35:00.219Z,26.40
2018-12-05T20:37:34.526Z,29.17
2018-12-05T20:40:14.861Z,25.93
2018-12-05T20:43:04.357Z,24.70
2018-12-05T20:45:41.326Z,22.77
2018-12-05T20:48:17.316Z,26.83
2018-12-05T20:50:54.559Z,27.97
2018-12-05T20:53:31.552Z,24.00
2018-12-05T20:56:08.884Z,30.33
2018-12-05T20:58:44.440Z,29.03
2018-12-05T21:01:24.403Z,24.23
2018-12-05T21:04:06.933Z,33.10
2018-12-05T21:06:42.501Z,31.23
2018-12-05T21:09:15.490Z,28.10
2018-12-05T21:11:47.330Z,28.67
2018-12-05T21:14:18.812Z,28.23
2018-12-05T21:16:57.907Z,31.50
2018-12-05T21:19:30.409Z,27.37
2018-12-05T21:22:01.659Z,26.03
2018-12-05T21:24:33.294Z,27.33
2018-12-05T21:27:04.463Z,25.83
2018-12-05T21:29:35.892Z,28.50
2018-12-05T21:32:07.099Z,25.17
2018-12-05T21:34:42.953Z,23.10
2018-12-05T21:37:25.805Z,28.33
2018-12-05T21:45:45.253Z,27.23
2018-12-05T21:48:22.377Z,30.00
2018-12-05T21:50:54.136Z,25.47
2018-12-05T21:53:28.723Z,27.87
2018-12-05T21:56:06.492Z,30.10
2018-12-05T21:58:43.190Z,27.40
2018-12-05T22:01:23.938Z,25.13
2018-12-05T22:04:12.615Z,23.07
2018-12-05T22:06:46.751Z,26.97
2018-12-05T22:09:17.829Z,27.60
2018-12-05T22:11:57.740Z,26.27
2018-12-05T22:14:33.596Z,26.87
2018-12-05T22:17:05.634Z,27.47
2018-12-05T22:19:49.462Z,28.03
2018-12-05T22:22:24.227Z,29.13
2018-12-05T22:24:59.153Z,28.17
2018-12-05T22:27:30.057Z,26.07
2018-12-05T22:30:02.107Z,28.10
2018-12-05T22:32:33.077Z,26.60
2018-12-05T22:35:06.021Z,26.93
2018-12-05T22:37:40.844Z,28.90
2018-12-05T22:40:18.790Z,29.77
2018-12-05T22:42:55.430Z,24.73
2018-12-05T22:45:29.468Z,23.83
2018-12-05T22:48:04.075Z,26.50
2018-12-05T22:50:37.390Z,25.87
2018-12-05T22:53:12.180Z,24.10
2018-12-05T22:55:48.764Z,23.23
2018-12-05T22:58:23.785Z,25.77
2018-12-05T23:00:59.693Z,27.00
2018-12-05T23:03:35.973Z,23.47
2018-12-05T23:06:08.746Z,23.30
2018-12-05T23:08:41.621Z,24.67
2018-12-05T23:11:14.760Z,24.90
2018-12-05T23:13:46.711Z,24.20
2018-12-05T23:16:23.306Z,25.47
2018-12-05T23:18:56.111Z,24.20
2018-12-05T23:21:40.161Z,25.10
2018-12-05T23:24:14.575Z,24.30
2018-12-05T23:26:46.581Z,25.23
2018-12-05T23:29:19.347Z,22.50
2018-12-05T23:32:07.235Z,22.17
2018-12-05T23:34:39.305Z,23.47
2018-12-05T23:37:10.536Z,23.53
2018-12-05T23:39:41.541Z,28.37
2018-12-05T23:42:12.877Z,24.50
2018-12-05T23:44:43.874Z,25.10
2018-12-05T23:47:14.849Z,24.53
2018-12-05T23:49:46.594Z,26.37
2018-12-05T23:52:17.567Z,26.03
2018-12-05T23:54:50.205Z,26.10
2018-12-05T23:57:21.151Z,28.47
2018-12-05T23:59:52.163Z,28.50
